Welcome to Northern Hawkes Bay. New Zealand.
PWS Header
      nz Flag



Hit Counter


W3C Valid W3C Valid logo


    Wairoa

Select any of the Stations below to visit their websites.










Historic Data from Weather Underground
Select the location of interest below. Wairoa is the default. Please have patience, this Data is slow to load in.
Northern Hawkes Bay Historical Data
Daily Summary for March 16, 2017 Units:  Metric    English   Both
« Previous Day
Next Day »
Daily Weekly Monthly Yearly Custom
  High: Low: Average:
Temperature: 19.9 °C 11.4 °C 15.1 °C
Dew Point: 15.0 °C 11.1 °C 13.1 °C
Humidity: 98% 71% 89%
Wind Speed: 19.5km/h 0.0km/h 6.3km/h
Wind Gust: 31.7km/h - -
Wind- - SW
Pressure: 1029.3 hPa 1026.6 hPa -
Precipitation: 2.0 mm    
Historical Graphs
 
 
Tabular Data for March 16, 2017
Time Temperature Dew Point Pressure Wind Wind Speed Wind Gust Humidity Rainfall Rate (Hourly) solar
00:03 14.1 °C 12.3 °C 1027.7 hPa SW 15.8 km/h 25.6 km/h 89% 0.0 mm 0 W/m2
00:08 14.1 °C 12.5 °C 1027.7 hPa SW 18.3 km/h 29.4 km/h 90% 0.0 mm 0 W/m2
00:13 14.1 °C 12.5 °C 1027.7 hPa SW 13.4 km/h 29.4 km/h 90% 0.0 mm 0 W/m2
00:18 13.9 °C 12.6 °C 1027.7 hPa SW 14.8 km/h 31.7 km/h 92% 0.0 mm 0 W/m2
00:23 13.8 °C 12.6 °C 1027.7 hPa WSW 17.2 km/h 31.7 km/h 92% 0.0 mm 0 W/m2
00:28 13.7 °C 12.6 °C 1027.3 hPa SW 12.2 km/h 25.6 km/h 93% 0.0 mm 0 W/m2
00:33 13.6 °C 12.7 °C 1027.3 hPa SW 11.1 km/h 27.0 km/h 94% 0.0 mm 0 W/m2
00:38 13.6 °C 12.7 °C 1027.7 hPa WSW 15.8 km/h 27.0 km/h 94% 0.0 mm 0 W/m2
00:43 13.6 °C 12.8 °C 1027.7 hPa WSW 8.7 km/h 29.4 km/h 95% 0.0 mm 0 W/m2
00:48 13.7 °C 12.8 °C 1027.7 hPa West 13.4 km/h 29.4 km/h 94% 0.0 mm 0 W/m2
00:53 13.7 °C 12.8 °C 1027.3 hPa WSW 8.7 km/h 23.3 km/h 94% 0.0 mm 0 W/m2
01:03 14.0 °C 12.9 °C 1027.3 hPa WSW 12.2 km/h 23.3 km/h 93% 0.0 mm 0 W/m2
01:08 14.0 °C 12.7 °C 1027.7 hPa WSW 17.2 km/h 28.0 km/h 92% 0.0 mm 0 W/m2
01:13 14.0 °C 12.7 °C 1027.3 hPa WSW 11.1 km/h 28.0 km/h 92% 0.0 mm 0 W/m2
01:18 14.0 °C 12.9 °C 1027.7 hPa SW 9.7 km/h 21.9 km/h 93% 0.0 mm 0 W/m2
01:23 13.9 °C 12.9 °C 1027.7 hPa SW 11.1 km/h 21.9 km/h 94% 0.0 mm 0 W/m2
01:28 13.8 °C 13.0 °C 1027.3 hPa SW 9.7 km/h 21.9 km/h 95% 0.0 mm 0 W/m2
01:44 13.6 °C 13.0 °C 1027.3 hPa SW 8.7 km/h 25.6 km/h 96% 0.3 mm 0 W/m2
01:49 13.7 °C 12.9 °C 1027.3 hPa WSW 12.2 km/h 20.9 km/h 95% 0.3 mm 0 W/m2
01:54 13.8 °C 12.8 °C 1027.3 hPa WSW 8.7 km/h 21.9 km/h 94% 0.3 mm 0 W/m2
01:59 14.0 °C 12.7 °C 1027.3 hPa WSW 14.8 km/h 24.5 km/h 92% 0.3 mm 0 W/m2
02:04 14.2 °C 12.6 °C 1027.3 hPa WSW 11.1 km/h 24.5 km/h 90% 0.3 mm 0 W/m2
02:09 14.3 °C 12.5 °C 1027.3 hPa SW 17.2 km/h 24.5 km/h 89% 0.3 mm 0 W/m2
02:14 14.5 °C 12.4 °C 1027.0 hPa SW 17.2 km/h 27.0 km/h 87% 0.3 mm 0 W/m2
02:19 14.6 °C 12.3 °C 1027.3 hPa SW 11.1 km/h 27.0 km/h 86% 0.3 mm 0 W/m2
02:24 14.5 °C 12.2 °C 1027.0 hPa WSW 12.2 km/h 27.0 km/h 86% 0.3 mm 0 W/m2
02:29 14.6 °C 12.3 °C 1027.3 hPa WSW 17.2 km/h 24.5 km/h 86% 0.3 mm 0 W/m2
02:34 14.6 °C 12.4 °C 1027.0 hPa SW 11.1 km/h 21.9 km/h 87% 0.3 mm 0 W/m2
02:39 14.6 °C 12.4 °C 1027.0 hPa SW 11.1 km/h 24.5 km/h 87% 0.3 mm 0 W/m2
02:44 14.4 °C 12.4 °C 1027.0 hPa SW 11.1 km/h 24.5 km/h 88% 0.0 mm 0 W/m2
02:49 14.2 °C 12.4 °C 1027.0 hPa SW 7.2 km/h 20.9 km/h 89% 0.0 mm 0 W/m2
02:54 14.3 °C 12.7 °C 1027.0 hPa SW 9.7 km/h 20.9 km/h 90% 0.0 mm 0 W/m2
02:59 14.5 °C 12.7 °C 1027.0 hPa SSW 9.7 km/h 28.0 km/h 89% 0.0 mm 0 W/m2
03:04 14.7 °C 12.7 °C 1027.0 hPa SW 12.2 km/h 28.0 km/h 88% 0.0 mm 0 W/m2
03:09 14.8 °C 12.8 °C 1027.0 hPa SW 17.2 km/h 28.0 km/h 88% 0.0 mm 0 W/m2
03:14 14.7 °C 12.7 °C 1027.0 hPa SW 19.5 km/h 29.4 km/h 88% 0.0 mm 0 W/m2
03:19 14.7 °C 12.7 °C 1027.0 hPa SW 14.8 km/h 29.4 km/h 88% 0.0 mm 0 W/m2
03:24 14.7 °C 12.7 °C 1027.0 hPa SW 19.5 km/h 29.4 km/h 88% 0.0 mm 0 W/m2
03:29 14.7 °C 12.6 °C 1027.0 hPa SW 12.2 km/h 24.5 km/h 87% 0.0 mm 0 W/m2
03:34 14.7 °C 12.4 °C 1027.0 hPa SSW 17.2 km/h 27.0 km/h 86% 0.0 mm 0 W/m2
03:39 14.7 °C 12.4 °C 1027.0 hPa SSW 14.8 km/h 27.0 km/h 86% 0.0 mm 0 W/m2
03:44 14.6 °C 12.3 °C 1027.0 hPa SSW 14.8 km/h 27.0 km/h 86% 0.0 mm 0 W/m2
03:49 14.5 °C 12.4 °C 1027.0 hPa SSW 11.1 km/h 19.5 km/h 87% 0.0 mm 0 W/m2
03:54 14.6 °C 12.7 °C 1027.0 hPa SSW 12.2 km/h 27.0 km/h 88% 0.0 mm 0 W/m2
03:59 14.6 °C 12.4 °C 1027.0 hPa SSW 18.3 km/h 30.6 km/h 87% 0.0 mm 0 W/m2
04:04 14.5 °C 12.6 °C 1027.0 hPa SSW 12.2 km/h 30.6 km/h 88% 0.0 mm 0 W/m2
04:09 14.5 °C 12.6 °C 1027.0 hPa SSW 17.2 km/h 25.6 km/h 88% 0.0 mm 0 W/m2
04:14 14.6 °C 12.7 °C 1027.0 hPa SSW 17.2 km/h 27.0 km/h 88% 0.0 mm 0 W/m2
04:19 14.4 °C 12.4 °C 1027.0 hPa SSW 14.8 km/h 27.0 km/h 88% 0.0 mm 0 W/m2
04:24 14.1 °C 12.7 °C 1027.0 hPa SSW 13.4 km/h 24.5 km/h 91% 0.0 mm 0 W/m2
04:29 13.9 °C 12.9 °C 1027.0 hPa SSW 12.2 km/h 24.5 km/h 94% 0.0 mm 0 W/m2
04:34 13.8 °C 13.0 °C 1027.0 hPa SSW 14.8 km/h 24.5 km/h 95% 0.0 mm 0 W/m2
04:39 13.7 °C 12.9 °C 1027.0 hPa SW 11.1 km/h 23.3 km/h 95% 0.0 mm 0 W/m2
04:44 13.8 °C 13.2 °C 1027.0 hPa SW 11.1 km/h 23.3 km/h 96% 0.0 mm 0 W/m2
04:49 13.7 °C 13.1 °C 1027.0 hPa SW 9.7 km/h 23.3 km/h 96% 0.0 mm 0 W/m2
04:54 13.6 °C 13.0 °C 1027.0 hPa SW 12.2 km/h 23.3 km/h 96% 0.0 mm 0 W/m2
04:59 13.5 °C 13.1 °C 1026.6 hPa SW 6.1 km/h 18.3 km/h 97% 0.0 mm 0 W/m2
05:04 13.4 °C 12.9 °C 1027.0 hPa WSW 3.5 km/h 18.3 km/h 97% 0.0 mm 0 W/m2
05:09 13.5 °C 13.1 °C 1027.0 hPa SW 12.2 km/h 18.3 km/h 97% 0.0 mm 0 W/m2
05:14 14.0 °C 13.2 °C 1027.0 hPa SSW 17.2 km/h 28.0 km/h 95% 0.0 mm 0 W/m2
05:19 14.0 °C 13.2 °C 1027.0 hPa SSW 14.8 km/h 28.0 km/h 95% 0.0 mm 0 W/m2
05:24 14.0 °C 13.1 °C 1027.0 hPa SSW 13.4 km/h 21.9 km/h 94% 0.0 mm 0 W/m2
05:29 14.0 °C 13.1 °C 1027.0 hPa SW 12.2 km/h 20.9 km/h 94% 0.0 mm 0 W/m2
05:34 13.9 °C 13.1 °C 1027.0 hPa SW 7.2 km/h 19.5 km/h 95% 0.0 mm 0 W/m2
05:39 13.9 °C 13.1 °C 1027.0 hPa SSW 3.5 km/h 18.3 km/h 95% 0.0 mm 0 W/m2
05:44 13.9 °C 13.1 °C 1027.0 hPa SW 5.0 km/h 17.2 km/h 95% 0.0 mm 0 W/m2
05:49 14.0 °C 12.9 °C 1027.0 hPa SW 7.2 km/h 14.8 km/h 93% 0.0 mm 0 W/m2
05:54 14.2 °C 12.9 °C 1027.3 hPa SW 8.7 km/h 23.3 km/h 92% 0.0 mm 0 W/m2
05:59 14.3 °C 12.8 °C 1027.3 hPa SW 9.7 km/h 23.3 km/h 91% 0.0 mm 0 W/m2
06:04 14.2 °C 12.8 °C 1027.3 hPa SSW 9.7 km/h 23.3 km/h 91% 0.0 mm 0 W/m2
06:09 14.1 °C 12.7 °C 1027.3 hPa SW 7.2 km/h 17.2 km/h 91% 0.0 mm 0 W/m2
06:14 14.3 °C 12.8 °C 1027.3 hPa SSW 8.7 km/h 13.4 km/h 91% 0.0 mm 0 W/m2
06:19 14.5 °C 12.7 °C 1027.3 hPa SW 9.7 km/h 17.2 km/h 89% 0.0 mm 0 W/m2
06:24 14.7 °C 12.6 °C 1027.3 hPa SW 9.7 km/h 17.2 km/h 87% 0.0 mm 0 W/m2
06:34 14.9 °C 12.8 °C 1027.7 hPa SW 17.2 km/h 20.9 km/h 87% 0.0 mm 0 W/m2
06:39 14.9 °C 12.8 °C 1027.3 hPa SW 7.2 km/h 20.9 km/h 87% 0.0 mm 0 W/m2
06:44 15.0 °C 12.7 °C 1027.7 hPa SW 13.4 km/h 20.9 km/h 86% 0.0 mm 0 W/m2
06:49 15.0 °C 12.7 °C 1027.7 hPa SW 7.2 km/h 18.3 km/h 86% 0.0 mm 0 W/m2
06:54 15.0 °C 12.7 °C 1027.3 hPa SW 12.2 km/h 19.5 km/h 86% 0.0 mm 0 W/m2
06:59 15.1 °C 12.8 °C 1027.7 hPa SW 7.2 km/h 19.5 km/h 86% 0.0 mm 0 W/m2
07:04 15.1 °C 12.8 °C 1027.3 hPa SW 1.1 km/h 15.8 km/h 86% 0.0 mm 0 W/m2
07:09 15.0 °C 12.7 °C 1027.7 hPa Calm   11.1 km/h 86% 0.0 mm 0 W/m2
07:14 15.1 °C 12.8 °C 1027.7 hPa SW 7.2 km/h 12.2 km/h 86% 0.0 mm 0 W/m2
07:19 15.0 °C 12.5 °C 1027.7 hPa WSW 1.1 km/h 12.2 km/h 85% 0.0 mm 1 W/m2
07:24 14.5 °C 12.2 °C 1027.7 hPa Calm   11.1 km/h 86% 0.0 mm 3 W/m2
07:29 14.5 °C 12.6 °C 1027.7 hPa Calm   9.7 km/h 88% 0.0 mm 7 W/m2
07:34 14.1 °C 12.0 °C 1028.0 hPa West 2.6 km/h 9.7 km/h 87% 0.0 mm 8 W/m2
07:39 14.0 °C 12.1 °C 1027.7 hPa North 5.0 km/h 7.2 km/h 88% 0.0 mm 11 W/m2
07:44 14.5 °C 12.9 °C 1027.7 hPa SW 5.0 km/h 13.4 km/h 90% 0.0 mm 13 W/m2
07:49 14.3 °C 12.5 °C 1027.7 hPa WSW 7.2 km/h 13.4 km/h 89% 0.0 mm 13 W/m2
07:54 14.8 °C 13.0 °C 1027.7 hPa WSW 13.4 km/h 19.5 km/h 89% 0.0 mm 13 W/m2
07:59 15.1 °C 12.8 °C 1027.7 hPa SW 6.1 km/h 19.5 km/h 86% 0.0 mm 18 W/m2
08:04 15.2 °C 12.9 °C 1027.7 hPa SSW 9.7 km/h 23.3 km/h 86% 0.0 mm 22 W/m2
08:09 15.2 °C 12.7 °C 1027.7 hPa SW 9.7 km/h 23.3 km/h 85% 0.0 mm 17 W/m2
08:14 15.0 °C 12.7 °C 1027.7 hPa SW 7.2 km/h 19.5 km/h 86% 0.0 mm 10 W/m2
08:19 14.8 °C 12.8 °C 1027.7 hPa SW 3.5 km/h 17.2 km/h 88% 0.0 mm 17 W/m2
08:24 14.9 °C 13.1 °C 1027.7 hPa WSW 9.7 km/h 19.5 km/h 89% 0.0 mm 25 W/m2
08:29 15.1 °C 12.9 °C 1028.0 hPa SW 6.1 km/h 19.5 km/h 87% 0.0 mm 32 W/m2
08:34 15.3 °C 13.0 °C 1028.0 hPa SW 11.1 km/h 24.5 km/h 86% 0.3 mm 35 W/m2
08:39 15.4 °C 13.1 °C 1028.0 hPa SSW 12.2 km/h 24.5 km/h 86% 0.3 mm 24 W/m2
08:44 15.3 °C 12.8 °C 1028.0 hPa SW 7.2 km/h 20.9 km/h 85% 0.3 mm 33 W/m2
08:49 15.2 °C 12.9 °C 1028.0 hPa SW 6.1 km/h 18.3 km/h 86% 0.3 mm 43 W/m2
08:54 15.2 °C 13.1 °C 1028.0 hPa SW 3.5 km/h 12.2 km/h 87% 0.3 mm 30 W/m2
08:59 15.2 °C 13.1 °C 1028.0 hPa WSW 5.0 km/h 12.2 km/h 87% 0.3 mm 46 W/m2
09:04 15.3 °C 13.2 °C 1028.0 hPa SW 5.0 km/h 17.2 km/h 87% 0.3 mm 64 W/m2
09:09 15.4 °C 13.3 °C 1028.0 hPa SW 12.2 km/h 17.2 km/h 87% 0.3 mm 48 W/m2
09:14 15.5 °C 13.2 °C 1028.0 hPa SW 13.4 km/h 24.5 km/h 86% 0.3 mm 73 W/m2
09:19 15.6 °C 13.3 °C 1028.3 hPa SSW 8.7 km/h 24.5 km/h 86% 0.3 mm 70 W/m2
09:24 15.6 °C 13.3 °C 1028.3 hPa SW 8.7 km/h 18.3 km/h 86% 0.3 mm 61 W/m2
09:29 15.6 °C 13.3 °C 1028.3 hPa WSW 7.2 km/h 15.8 km/h 86% 0.3 mm 62 W/m2
09:34 15.7 °C 13.4 °C 1028.3 hPa SW 11.1 km/h 15.8 km/h 86% 0.0 mm 81 W/m2
09:39 15.7 °C 13.2 °C 1028.3 hPa SW 2.6 km/h 17.2 km/h 85% 0.0 mm 82 W/m2
09:44 15.7 °C 13.4 °C 1028.3 hPa SW 1.1 km/h 17.2 km/h 86% 0.0 mm 78 W/m2
09:49 15.5 °C 13.0 °C 1028.3 hPa NW 2.6 km/h 7.2 km/h 85% 0.0 mm 48 W/m2
09:54 15.1 °C 12.8 °C 1028.3 hPa SW 11.1 km/h 15.8 km/h 86% 0.0 mm 80 W/m2
09:59 15.4 °C 13.4 °C 1028.7 hPa SW 12.2 km/h 15.8 km/h 88% 0.0 mm 93 W/m2
10:04 15.5 °C 13.6 °C 1028.7 hPa SW 11.1 km/h 18.3 km/h 88% 0.0 mm 95 W/m2
10:09 15.5 °C 13.6 °C 1028.7 hPa SW 9.7 km/h 18.3 km/h 88% 0.0 mm 101 W/m2
10:14 15.6 °C 13.8 °C 1028.7 hPa SW 9.7 km/h 18.3 km/h 89% 0.0 mm 123 W/m2
10:19 15.6 °C 13.8 °C 1028.7 hPa SW 12.2 km/h 18.3 km/h 89% 0.0 mm 138 W/m2
10:24 15.7 °C 13.9 °C 1028.7 hPa SW 8.7 km/h 18.3 km/h 89% 0.0 mm 158 W/m2
10:29 15.8 °C 14.0 °C 1028.7 hPa SW 13.4 km/h 19.5 km/h 89% 0.0 mm 185 W/m2
10:34 15.9 °C 13.9 °C 1028.7 hPa SW 11.1 km/h 20.9 km/h 88% 0.0 mm 190 W/m2
10:39 16.0 °C 13.7 °C 1028.7 hPa SW 15.8 km/h 23.3 km/h 86% 0.0 mm 200 W/m2
10:44 16.1 °C 13.8 °C 1029.0 hPa WSW 15.8 km/h 23.3 km/h 86% 0.0 mm 227 W/m2
10:49 16.1 °C 13.6 °C 1029.0 hPa SW 13.4 km/h 23.3 km/h 85% 0.0 mm 239 W/m2
10:54 16.1 °C 13.6 °C 1028.7 hPa SW 14.8 km/h 23.3 km/h 85% 0.0 mm 173 W/m2
10:59 16.0 °C 13.5 °C 1029.0 hPa West 12.2 km/h 21.9 km/h 85% 0.0 mm 191 W/m2
11:04 15.8 °C 13.7 °C 1029.0 hPa West 13.4 km/h 21.9 km/h 87% 0.0 mm 246 W/m2
11:09 15.9 °C 13.6 °C 1029.0 hPa SW 6.1 km/h 20.9 km/h 86% 0.0 mm 609 W/m2
11:14 16.6 °C 14.1 °C 1029.0 hPa SW 11.1 km/h 20.9 km/h 85% 0.0 mm 308 W/m2
11:19 16.5 °C 13.4 °C 1029.0 hPa WSW 9.7 km/h 20.9 km/h 82% 0.0 mm 276 W/m2
11:24 16.3 °C 13.2 °C 1028.7 hPa WSW 11.1 km/h 20.9 km/h 82% 0.0 mm 218 W/m2
11:29 16.2 °C 13.1 °C 1029.0 hPa WSW 5.0 km/h 20.9 km/h 82% 0.0 mm 173 W/m2
11:34 16.1 °C 13.1 °C 1029.0 hPa SW 8.7 km/h 19.5 km/h 82% 0.0 mm 177 W/m2
11:39 16.0 °C 12.9 °C 1029.0 hPa SW 12.2 km/h 19.5 km/h 82% 0.0 mm 171 W/m2
11:44 15.8 °C 13.1 °C 1029.0 hPa SW 14.8 km/h 20.9 km/h 84% 0.0 mm 163 W/m2
11:48 15.7 °C 13.2 °C 1029.0 hPa SW 13.4 km/h 20.9 km/h 85% 0.0 mm 186 W/m2
11:53 15.6 °C 13.3 °C 1029.0 hPa SW 11.1 km/h 18.3 km/h 86% 0.0 mm 161 W/m2
11:58 15.5 °C 13.3 °C 1029.0 hPa SW 9.7 km/h 15.8 km/h 87% 0.0 mm 152 W/m2
12:04 15.4 °C 13.4 °C 1029.0 hPa SW 7.2 km/h 17.2 km/h 88% 0.0 mm 109 W/m2
12:09 15.4 °C 13.6 °C 1028.7 hPa SW 7.2 km/h 17.2 km/h 89% 0.0 mm 116 W/m2
12:14 15.3 °C 13.7 °C 1029.0 hPa SSW 7.2 km/h 13.4 km/h 90% 0.0 mm 116 W/m2
12:19 15.2 °C 13.6 °C 1029.0 hPa Calm   11.1 km/h 90% 0.3 mm 94 W/m2
12:24 15.4 °C 13.8 °C 1029.0 hPa Calm   9.7 km/h 90% 0.3 mm 72 W/m2
12:29 15.3 °C 13.7 °C 1028.7 hPa Calm     90% 0.3 mm 84 W/m2
12:34 15.2 °C 13.6 °C 1029.0 hPa Calm     90% 0.3 mm 82 W/m2
12:39 15.2 °C 13.6 °C 1029.0 hPa Calm     90% 0.5 mm 85 W/m2
12:44 15.2 °C 13.6 °C 1028.7 hPa Calm     90% 0.5 mm 82 W/m2
12:49 15.2 °C 13.7 °C 1028.7 hPa Calm     91% 0.5 mm 89 W/m2
12:54 15.2 °C 13.7 °C 1028.7 hPa Calm     91% 1.0 mm 84 W/m2
12:59 15.1 °C 13.7 °C 1028.7 hPa Calm     91% 1.0 mm 83 W/m2
13:04 15.2 °C 13.9 °C 1028.7 hPa Calm     92% 1.0 mm 78 W/m2
13:09 15.2 °C 13.9 °C 1028.7 hPa Calm     92% 1.0 mm 86 W/m2
13:14 15.2 °C 14.1 °C 1028.7 hPa Calm     93% 1.0 mm 95 W/m2
13:19 15.1 °C 14.0 °C 1028.7 hPa Calm     93% 0.5 mm 82 W/m2
13:24 15.1 °C 14.0 °C 1028.7 hPa Calm   5.0 km/h 93% 0.5 mm 85 W/m2
13:29 15.1 °C 14.0 °C 1028.7 hPa Calm   6.1 km/h 93% 0.5 mm 73 W/m2
13:34 15.0 °C 14.1 °C 1028.7 hPa Calm   6.1 km/h 94% 0.3 mm 65 W/m2
13:39 14.9 °C 14.1 °C 1028.7 hPa Calm     95% 0.3 mm 62 W/m2
13:44 15.0 °C 14.1 °C 1028.7 hPa NNW 5.0 km/h 8.7 km/h 94% 0.5 mm 71 W/m2
13:49 14.9 °C 14.3 °C 1028.7 hPa NNW 5.0 km/h 8.7 km/h 96% 0.5 mm 85 W/m2
13:54 14.9 °C 14.3 °C 1028.7 hPa Calm   8.7 km/h 96% 0.3 mm 71 W/m2
13:59 15.0 °C 14.2 °C 1028.3 hPa Calm   8.7 km/h 95% 0.3 mm 58 W/m2
14:04 15.1 °C 14.3 °C 1028.7 hPa Calm   3.5 km/h 95% 0.5 mm 102 W/m2
14:09 15.1 °C 14.3 °C 1028.3 hPa Calm   6.1 km/h 95% 0.5 mm 85 W/m2
14:14 15.1 °C 14.3 °C 1028.3 hPa Calm   6.1 km/h 95% 0.5 mm 145 W/m2
14:19 15.2 °C 14.6 °C 1028.3 hPa Calm     96% 0.5 mm 163 W/m2
14:24 15.4 °C 14.8 °C 1028.3 hPa Calm     96% 0.5 mm 160 W/m2
14:29 15.5 °C 14.9 °C 1028.3 hPa Calm     96% 0.5 mm 144 W/m2
14:34 15.6 °C 15.0 °C 1028.3 hPa Calm     96% 0.5 mm 133 W/m2
14:39 15.7 °C 14.9 °C 1028.3 hPa Calm   5.0 km/h 95% 0.5 mm 119 W/m2
14:44 15.7 °C 14.9 °C 1028.0 hPa Calm   5.0 km/h 95% 0.3 mm 100 W/m2
14:49 15.7 °C 14.7 °C 1028.0 hPa Calm     94% 0.3 mm 97 W/m2
14:54 15.7 °C 14.6 °C 1028.0 hPa Calm     93% 0.3 mm 82 W/m2
14:59 16.0 °C 14.7 °C 1028.0 hPa Calm     92% 0.3 mm 112 W/m2
15:04 16.2 °C 14.7 °C 1028.0 hPa Calm     91% 0.0 mm 144 W/m2
15:10 16.4 °C 14.8 °C 1028.0 hPa SW 2.6 km/h 11.1 km/h 90% 0.0 mm 209 W/m2
15:15 16.7 °C 14.6 °C 1028.0 hPa SSW 5.0 km/h 12.2 km/h 87% 0.0 mm 192 W/m2
15:20 17.0 °C 14.4 °C 1028.0 hPa SSW 5.0 km/h 12.2 km/h 85% 0.0 mm 211 W/m2
15:36 17.5 °C 14.4 °C 1028.0 hPa SSW 7.2 km/h 12.2 km/h 82% 0.0 mm 258 W/m2
15:41 17.6 °C 14.3 °C 1027.7 hPa SSW 7.2 km/h 13.4 km/h 81% 0.0 mm 262 W/m2
15:46 17.9 °C 14.2 °C 1027.7 hPa South 7.2 km/h 13.4 km/h 79% 0.0 mm 307 W/m2
15:51 18.5 °C 14.8 °C 1028.0 hPa South 8.7 km/h 12.2 km/h 79% 0.0 mm 258 W/m2
15:56 18.7 °C 14.4 °C 1027.7 hPa South 5.0 km/h 11.1 km/h 76% 0.0 mm 324 W/m2
16:01 18.9 °C 14.8 °C 1028.0 hPa South 5.0 km/h 12.2 km/h 77% 0.0 mm 302 W/m2
16:06 18.9 °C 14.4 °C 1028.0 hPa South 7.2 km/h 17.2 km/h 75% 0.0 mm 360 W/m2
16:11 19.0 °C 14.3 °C 1028.0 hPa South 6.1 km/h 17.2 km/h 74% 0.0 mm 243 W/m2
16:16 18.8 °C 14.3 °C 1028.0 hPa SSW 8.7 km/h 14.8 km/h 75% 0.0 mm 350 W/m2
16:21 19.0 °C 14.3 °C 1028.0 hPa SSW 9.7 km/h 15.8 km/h 74% 0.0 mm 253 W/m2
16:26 19.0 °C 14.3 °C 1028.0 hPa SSW 7.2 km/h 15.8 km/h 74% 0.0 mm 227 W/m2
16:31 19.0 °C 14.3 °C 1028.0 hPa SSW 8.7 km/h 15.8 km/h 74% 0.0 mm 195 W/m2
16:36 19.2 °C 14.4 °C 1028.0 hPa SSW 8.7 km/h 13.4 km/h 74% 0.0 mm 319 W/m2
16:41 19.6 °C 14.4 °C 1028.0 hPa SW 5.0 km/h 12.2 km/h 72% 0.0 mm 496 W/m2
16:46 19.9 °C 14.5 °C 1027.7 hPa SSW 8.7 km/h 14.8 km/h 71% 0.0 mm 249 W/m2
16:51 19.1 °C 13.9 °C 1027.7 hPa South 6.1 km/h 14.8 km/h 72% 0.0 mm 242 W/m2
16:56 18.8 °C 14.1 °C 1028.0 hPa South 6.1 km/h 13.4 km/h 74% 0.0 mm 210 W/m2
17:01 18.7 °C 14.2 °C 1028.0 hPa SSW 8.7 km/h 11.1 km/h 75% 0.0 mm 225 W/m2
17:06 18.7 °C 14.4 °C 1028.0 hPa SSW 8.7 km/h 12.2 km/h 76% 0.0 mm 227 W/m2
17:11 18.5 °C 14.0 °C 1028.0 hPa South 5.0 km/h 12.2 km/h 75% 0.0 mm 210 W/m2
17:16 18.6 °C 14.1 °C 1027.7 hPa South 3.5 km/h 12.2 km/h 75% 0.0 mm 188 W/m2
17:21 18.7 °C 14.2 °C 1028.0 hPa South 5.0 km/h 9.7 km/h 75% 0.0 mm 179 W/m2
17:26 18.6 °C 14.3 °C 1027.7 hPa South 2.6 km/h 9.7 km/h 76% 0.0 mm 176 W/m2
17:31 18.5 °C 14.0 °C 1027.7 hPa SSW 5.0 km/h 9.7 km/h 75% 0.0 mm 170 W/m2
17:36 18.4 °C 14.1 °C 1027.7 hPa SSW 7.2 km/h 9.7 km/h 76% 0.0 mm 163 W/m2
17:41 18.6 °C 14.3 °C 1027.7 hPa SSW 5.0 km/h 9.7 km/h 76% 0.0 mm 153 W/m2
17:46 18.5 °C 14.2 °C 1028.0 hPa SSW 5.0 km/h 11.1 km/h 76% 0.0 mm 146 W/m2
17:51 18.5 °C 14.2 °C 1028.0 hPa SSW 3.5 km/h 11.1 km/h 76% 0.0 mm 140 W/m2
17:56 18.5 °C 14.0 °C 1028.0 hPa South 7.2 km/h 11.1 km/h 75% 0.0 mm 146 W/m2
18:01 18.5 °C 14.2 °C 1028.0 hPa SSW 6.1 km/h 11.1 km/h 76% 0.0 mm 135 W/m2
18:06 18.4 °C 14.1 °C 1028.0 hPa South 5.0 km/h 11.1 km/h 76% 0.0 mm 136 W/m2
18:11 18.5 °C 14.0 °C 1028.0 hPa South 6.1 km/h 9.7 km/h 75% 0.0 mm 114 W/m2
18:16 18.6 °C 14.3 °C 1028.0 hPa SSW 3.5 km/h 9.7 km/h 76% 0.0 mm 108 W/m2
18:21 18.4 °C 13.9 °C 1028.3 hPa SSW 6.1 km/h 9.7 km/h 75% 0.0 mm 90 W/m2
18:26 18.7 °C 14.4 °C 1028.0 hPa SSW 5.0 km/h 9.7 km/h 76% 0.0 mm 79 W/m2
18:31 18.5 °C 14.0 °C 1028.3 hPa South 2.6 km/h 11.1 km/h 75% 0.0 mm 67 W/m2
18:36 18.5 °C 14.0 °C 1028.3 hPa South 5.0 km/h 11.1 km/h 75% 0.0 mm 43 W/m2
18:41 18.1 °C 13.8 °C 1028.0 hPa South 5.0 km/h 8.7 km/h 76% 0.0 mm 34 W/m2
18:46 17.6 °C 13.7 °C 1028.3 hPa Calm   8.7 km/h 78% 0.0 mm 30 W/m2
18:51 17.4 °C 13.6 °C 1028.3 hPa Calm   8.7 km/h 78% 0.0 mm 26 W/m2
18:56 17.2 °C 13.3 °C 1028.3 hPa Calm     78% 0.0 mm 23 W/m2
19:01 17.0 °C 13.3 °C 1028.3 hPa Calm     79% 0.0 mm 21 W/m2
19:06 17.0 °C 13.6 °C 1028.3 hPa Calm     80% 0.0 mm 18 W/m2
19:11 16.9 °C 13.6 °C 1028.3 hPa Calm     81% 0.0 mm 15 W/m2
19:16 16.6 °C 13.2 °C 1028.3 hPa Calm     80% 0.0 mm 12 W/m2
19:21 16.3 °C 13.1 °C 1028.3 hPa Calm     81% 0.0 mm 7 W/m2
19:38 15.4 °C 12.6 °C 1028.7 hPa Calm     83% 0.0 mm 0 W/m2
19:43 15.2 °C 12.5 °C 1028.3 hPa Calm     84% 0.0 mm 0 W/m2
19:48 15.1 °C 12.8 °C 1028.7 hPa Calm     86% 0.0 mm 0 W/m2
19:53 14.9 °C 12.9 °C 1028.7 hPa Calm     88% 0.0 mm 0 W/m2
19:58 14.7 °C 12.7 °C 1028.7 hPa Calm     88% 0.0 mm 0 W/m2
20:03 14.5 °C 12.6 °C 1028.7 hPa Calm     88% 0.0 mm 0 W/m2
20:08 14.3 °C 12.5 °C 1028.7 hPa Calm     89% 0.0 mm 0 W/m2
20:13 14.2 °C 12.6 °C 1028.7 hPa Calm     90% 0.0 mm 0 W/m2
20:18 14.1 °C 12.7 °C 1028.7 hPa Calm     91% 0.0 mm 0 W/m2
20:23 14.0 °C 12.7 °C 1028.7 hPa Calm     92% 0.0 mm 0 W/m2
20:28 13.9 °C 12.9 °C 1029.0 hPa Calm     94% 0.0 mm 0 W/m2
20:33 13.8 °C 12.8 °C 1029.0 hPa Calm     94% 0.0 mm 0 W/m2
20:38 13.6 °C 12.8 °C 1029.0 hPa Calm     95% 0.0 mm 0 W/m2
20:43 13.6 °C 12.8 °C 1029.3 hPa Calm     95% 0.0 mm 0 W/m2
20:48 13.4 °C 12.8 °C 1029.0 hPa Calm     96% 0.0 mm 0 W/m2
20:53 13.3 °C 12.7 °C 1029.3 hPa Calm     96% 0.0 mm 0 W/m2
20:58 13.3 °C 12.7 °C 1029.0 hPa Calm     96% 0.0 mm 0 W/m2
21:03 13.2 °C 12.6 °C 1029.0 hPa Calm     96% 0.0 mm 0 W/m2
21:08 13.1 °C 12.5 °C 1029.0 hPa Calm     96% 0.0 mm 0 W/m2
21:13 13.1 °C 12.5 °C 1029.0 hPa Calm     96% 0.0 mm 0 W/m2
21:18 13.0 °C 12.6 °C 1029.0 hPa Calm     97% 0.0 mm 0 W/m2
21:23 13.0 °C 12.6 °C 1029.0 hPa Calm     97% 0.0 mm 0 W/m2
21:28 12.9 °C 12.4 °C 1029.0 hPa Calm     97% 0.0 mm 0 W/m2
21:33 12.9 °C 12.4 °C 1029.0 hPa Calm     97% 0.0 mm 0 W/m2
21:38 12.8 °C 12.3 °C 1029.0 hPa Calm     97% 0.0 mm 0 W/m2
21:43 12.7 °C 12.2 °C 1029.0 hPa Calm     97% 0.0 mm 0 W/m2
21:48 12.6 °C 12.2 °C 1029.0 hPa Calm     97% 0.0 mm 0 W/m2
21:53 12.5 °C 12.1 °C 1029.0 hPa Calm     97% 0.0 mm 0 W/m2
21:58 12.4 °C 11.9 °C 1029.0 hPa Calm     97% 0.0 mm 0 W/m2
22:03 12.2 °C 11.7 °C 1029.0 hPa Calm     97% 0.0 mm 0 W/m2
22:08 12.2 °C 11.7 °C 1029.0 hPa Calm     97% 0.0 mm 0 W/m2
22:13 12.1 °C 11.7 °C 1029.0 hPa Calm     97% 0.0 mm 0 W/m2
22:18 12.0 °C 11.6 °C 1029.0 hPa Calm     97% 0.0 mm 0 W/m2
22:23 12.0 °C 11.6 °C 1029.0 hPa Calm     97% 0.0 mm 0 W/m2
22:28 12.0 °C 11.6 °C 1029.0 hPa Calm     97% 0.0 mm 0 W/m2
22:33 11.9 °C 11.6 °C 1029.0 hPa Calm     98% 0.0 mm 0 W/m2
22:38 11.8 °C 11.5 °C 1029.0 hPa Calm     98% 0.0 mm 0 W/m2
22:43 11.8 °C 11.5 °C 1029.0 hPa Calm     98% 0.0 mm 0 W/m2
22:48 11.8 °C 11.5 °C 1028.7 hPa Calm     98% 0.0 mm 0 W/m2
22:53 11.7 °C 11.4 °C 1029.0 hPa Calm     98% 0.0 mm 0 W/m2
22:58 11.7 °C 11.4 °C 1029.0 hPa Calm     98% 0.0 mm 0 W/m2
23:04 11.7 °C 11.4 °C 1029.0 hPa Calm     98% 0.0 mm 0 W/m2
23:09 11.6 °C 11.3 °C 1028.7 hPa Calm     98% 0.0 mm 0 W/m2
23:14 11.6 °C 11.3 °C 1029.0 hPa Calm     98% 0.0 mm 0 W/m2
23:19 11.6 °C 11.3 °C 1029.0 hPa Calm     98% 0.0 mm 0 W/m2
23:24 11.6 °C 11.3 °C 1029.0 hPa Calm     98% 0.0 mm 0 W/m2
23:29 11.5 °C 11.2 °C 1029.0 hPa Calm     98% 0.0 mm 0 W/m2
23:34 11.5 °C 11.2 °C 1029.0 hPa Calm     98% 0.0 mm 0 W/m2
23:39 11.5 °C 11.2 °C 1029.0 hPa Calm     98% 0.0 mm 0 W/m2
23:44 11.5 °C 11.2 °C 1029.0 hPa Calm     98% 0.0 mm 0 W/m2
23:49 11.5 °C 11.2 °C 1029.0 hPa Calm   5.0 km/h 98% 0.0 mm 0 W/m2
23:54 11.5 °C 11.2 °C 1029.0 hPa Calm   5.0 km/h 98% 0.0 mm 0 W/m2
23:59 11.4 °C 11.1 °C 1029.0 hPa Calm     98% 0.0 mm 0 W/m2
Northern Hawkes Bay. New Zealand Historic Data
Compliments of Weather Underground - 2.25 mb